Time;durP1;ratioP1;P1;durP2;ratioP2;P2;SDS_P1;SDS_P2;PMS_P1;PMS_P2;Temp;Humidity;BMP_temperature;BMP_pressure;BME280_temperature;BME280_humidity;BME280_pressure;Samples;Min_cycle;Max_cycle;Signal;HPM_P1;HPM_P2
2023/03/17 00:01:35;;;;;;;6.53;3.95;;;6.30;93.40;;;;;;4963707;28;20094;-71
2023/03/17 00:04:01;;;;;;;5.45;3.72;;;6.30;93.50;;;;;;4963924;28;20329;-71
2023/03/17 00:06:32;;;;;;;6.32;3.70;;;6.30;93.60;;;;;;4963765;28;20027;-72
2023/03/17 00:08:58;;;;;;;7.47;3.60;;;6.20;93.60;;;;;;4964461;28;20043;-71
2023/03/17 00:11:26;;;;;;;6.68;3.75;;;6.20;93.90;;;;;;4962809;28;20313;-72
2023/03/17 00:13:52;;;;;;;6.15;3.97;;;6.10;94.00;;;;;;4963807;28;20058;-72
2023/03/17 00:16:28;;;;;;;6.88;3.50;;;6.10;94.10;;;;;;4946888;29;20154;-71
2023/03/17 00:18:56;;;;;;;8.02;3.75;;;6.20;94.00;;;;;;4964085;28;20043;-72
2023/03/17 00:21:31;;;;;;;6.88;3.80;;;6.20;94.40;;;;;;4963869;28;20050;-72
2023/03/17 00:23:58;;;;;;;7.78;3.65;;;6.20;94.00;;;;;;4963991;28;20063;-71
2023/03/17 00:26:24;;;;;;;7.47;3.90;;;6.20;94.10;;;;;;4963714;28;20039;-71
2023/03/17 00:28:51;;;;;;;7.00;3.80;;;6.20;94.30;;;;;;4963877;28;20031;-71
2023/03/17 00:31:26;;;;;;;8.15;4.15;;;6.30;94.30;;;;;;4962799;28;20186;-71
2023/03/17 00:33:53;;;;;;;8.23;3.85;;;6.30;94.40;;;;;;4963708;28;20043;-73
2023/03/17 00:36:23;;;;;;;7.57;4.30;;;6.30;94.40;;;;;;4963456;28;20043;-72
2023/03/17 00:38:51;;;;;;;8.70;4.10;;;6.30;94.50;;;;;;4963880;28;20051;-71
2023/03/17 00:41:17;;;;;;;8.73;4.63;;;6.30;94.60;;;;;;4959571;28;20046;-73
2023/03/17 00:43:43;;;;;;;8.60;4.65;;;6.30;94.70;;;;;;4958867;28;20466;-73
2023/03/17 00:46:34;;;;;;;8.80;4.35;;;6.30;95.00;;;;;;4964043;28;20090;-73
2023/03/17 00:49:02;;;;;;;6.07;3.78;;;6.40;94.90;;;;;;4962481;28;20249;-73
2023/03/17 00:51:28;;;;;;;7.80;3.75;;;6.40;94.30;;;;;;4962202;28;20081;-73
2023/03/17 00:53:54;;;;;;;9.68;4.28;;;6.50;94.40;;;;;;4963803;28;20039;-73
2023/03/17 00:56:20;;;;;;;8.20;4.45;;;6.60;94.30;;;;;;4963712;28;20313;-73
2023/03/17 00:58:47;;;;;;;7.85;3.88;;;6.60;94.50;;;;;;4965738;28;20093;-71
2023/03/17 06:02:57;;;;;;;11.15;5.70;;;4.40;99.90;;;;;;5307223;23;20051;-73
2023/03/17 06:05:23;;;;;;;8.27;5.10;;;4.40;99.90;;;;;;4985772;28;20037;-75
2023/03/17 06:07:49;;;;;;;9.73;5.28;;;4.50;99.90;;;;;;4985357;28;20019;-72
2023/03/17 06:10:15;;;;;;;8.43;5.32;;;4.50;99.90;;;;;;4985722;28;20060;-75
2023/03/17 06:12:40;;;;;;;11.35;6.15;;;4.60;99.90;;;;;;4985548;28;20223;-73
2023/03/17 06:15:08;;;;;;;12.77;6.20;;;4.60;99.90;;;;;;4985039;28;20075;-74
2023/03/17 06:17:35;;;;;;;16.65;7.55;;;4.70;99.90;;;;;;4968578;28;20093;-74
2023/03/17 06:20:02;;;;;;;11.85;6.85;;;4.80;99.90;;;;;;4986481;28;20041;-74
2023/03/17 06:22:28;;;;;;;15.05;6.45;;;4.90;99.90;;;;;;4972236;28;20050;-74
2023/03/17 06:24:54;;;;;;;10.23;6.00;;;5.00;99.90;;;;;;4985119;28;20045;-74
2023/03/17 06:27:20;;;;;;;11.27;5.28;;;5.00;99.90;;;;;;4985358;28;20035;-73
2023/03/17 06:29:46;;;;;;;11.88;5.90;;;5.00;99.90;;;;;;4985114;28;20035;-73
2023/03/17 06:32:12;;;;;;;7.85;4.88;;;5.20;99.90;;;;;;4985274;28;20035;-72
2023/03/17 06:34:41;;;;;;;10.02;5.13;;;5.20;99.90;;;;;;4984866;28;20054;-71
2023/03/17 06:37:09;;;;;;;8.73;5.50;;;5.30;99.90;;;;;;4984421;28;20061;-72
2023/03/17 06:39:36;;;;;;;9.38;5.10;;;5.30;99.90;;;;;;4985307;28;20027;-73
2023/03/17 06:42:02;;;;;;;8.75;5.00;;;5.40;99.90;;;;;;4984480;28;20320;-72
2023/03/17 06:44:28;;;;;;;10.52;5.75;;;5.50;99.90;;;;;;4984877;28;20035;-74
2023/03/17 06:46:54;;;;;;;9.48;6.07;;;5.60;99.90;;;;;;4983342;28;20256;-73
2023/03/17 06:49:20;;;;;;;11.10;5.65;;;5.70;99.90;;;;;;4985228;28;20035;-73
2023/03/17 06:51:46;;;;;;;10.77;6.13;;;5.80;99.90;;;;;;4983406;28;20054;-75
2023/03/17 06:54:11;;;;;;;11.23;4.85;;;5.90;99.90;;;;;;4985068;28;20046;-75
2023/03/17 06:56:37;;;;;;;12.63;5.75;;;6.00;99.90;;;;;;4984904;28;20038;-71
2023/03/17 06:59:06;;;;;;;11.38;6.13;;;6.10;99.90;;;;;;4984121;28;20065;-75
2023/03/17 07:01:32;;;;;;;11.25;5.82;;;6.30;99.90;;;;;;4981880;28;20320;-73
2023/03/17 07:03:58;;;;;;;13.23;6.78;;;6.40;99.90;;;;;;4969707;28;20043;-73
2023/03/17 07:06:24;;;;;;;11.60;6.30;;;6.60;99.90;;;;;;4964594;28;20216;-75
2023/03/17 07:08:49;;;;;;;10.40;5.95;;;6.80;99.90;;;;;;4941222;29;20221;-73
2023/03/17 07:11:15;;;;;;;13.35;6.35;;;7.00;99.50;;;;;;4951516;29;20035;-72
2023/03/17 07:13:41;;;;;;;7.65;5.50;;;7.10;98.60;;;;;;4957821;29;20043;-74
2023/03/17 07:16:08;;;;;;;11.40;5.35;;;7.20;97.80;;;;;;4957389;29;20102;-73
2023/03/17 07:18:33;;;;;;;9.27;5.53;;;7.40;97.40;;;;;;4960318;28;20206;-74
2023/03/17 07:21:01;;;;;;;8.82;5.03;;;7.50;96.90;;;;;;4936144;29;20027;-72
2023/03/17 07:23:29;;;;;;;10.52;5.20;;;7.60;96.30;;;;;;4948456;29;20031;-74
2023/03/17 07:25:56;;;;;;;8.55;4.90;;;7.80;95.90;;;;;;4947910;29;20102;-75
2023/03/17 07:28:22;;;;;;;8.07;4.53;;;8.00;95.80;;;;;;4947407;29;20185;-77
2023/03/17 07:30:49;;;;;;;12.55;4.75;;;8.10;95.20;;;;;;4938231;29;20055;-77
2023/03/17 07:33:20;;;;;;;10.77;5.50;;;8.20;94.70;;;;;;4962175;28;20091;-77
2023/03/17 07:35:50;;;;;;;8.10;4.45;;;8.30;94.30;;;;;;4955355;29;20221;-76
2023/03/17 07:38:18;;;;;;;13.23;5.25;;;8.30;93.80;;;;;;4947650;29;20050;-76
2023/03/17 07:40:47;;;;;;;8.07;5.18;;;8.40;93.70;;;;;;4964970;29;20332;-77
2023/03/17 07:43:15;;;;;;;10.45;4.13;;;8.50;93.50;;;;;;4965131;28;20058;-76
2023/03/17 07:45:42;;;;;;;10.40;4.93;;;8.50;93.20;;;;;;4954937;28;20055;-73
2023/03/17 07:48:08;;;;;;;10.02;5.18;;;8.60;93.10;;;;;;4944549;29;20059;-73
2023/03/17 07:50:35;;;;;;;8.90;4.70;;;8.60;93.20;;;;;;4945444;29;20067;-73
2023/03/17 07:53:02;;;;;;;11.38;4.93;;;8.60;93.10;;;;;;4944940;29;20293;-74
2023/03/17 07:55:29;;;;;;;10.75;4.90;;;8.60;93.00;;;;;;4945427;29;20050;-74
2023/03/17 07:57:55;;;;;;;9.48;4.78;;;8.60;93.30;;;;;;4948355;29;20090;-73
2023/03/17 08:00:22;;;;;;;12.75;4.90;;;8.60;93.40;;;;;;4947441;29;20042;-75
2023/03/17 08:02:49;;;;;;;9.60;5.25;;;8.60;93.40;;;;;;4964665;29;20109;-76
2023/03/17 08:05:15;;;;;;;9.20;5.13;;;8.70;93.50;;;;;;4964741;28;20320;-74
2023/03/17 08:07:41;;;;;;;8.07;4.90;;;8.70;93.30;;;;;;4947231;29;20031;-75
2023/03/17 08:10:08;;;;;;;9.10;5.10;;;8.70;93.30;;;;;;4957463;28;20086;-73
2023/03/17 08:12:35;;;;;;;10.02;5.40;;;8.80;93.10;;;;;;4955707;29;20035;-73
2023/03/17 08:15:01;;;;;;;11.63;5.20;;;8.90;93.10;;;;;;4963694;28;20340;-73
2023/03/17 08:17:26;;;;;;;11.13;4.90;;;9.10;92.80;;;;;;4964339;29;20031;-73
2023/03/17 08:19:53;;;;;;;9.00;5.30;;;9.20;92.60;;;;;;4963218;28;20031;-76
2023/03/17 08:22:19;;;;;;;7.93;4.40;;;9.40;92.20;;;;;;4964363;29;20062;-73
2023/03/17 08:24:45;;;;;;;9.98;4.80;;;9.70;92.10;;;;;;4946917;29;20313;-73
2023/03/17 08:27:11;;;;;;;9.70;5.18;;;10.00;91.60;;;;;;4963554;28;20106;-73
2023/03/17 08:29:37;;;;;;;11.98;5.38;;;10.20;91.00;;;;;;4963849;29;20042;-74
2023/03/17 08:32:03;;;;;;;12.43;4.60;;;10.40;90.80;;;;;;4963319;29;20138;-73
2023/03/17 08:34:30;;;;;;;8.77;4.90;;;10.40;90.30;;;;;;4963566;28;20077;-74
2023/03/17 08:36:56;;;;;;;14.23;5.30;;;10.40;90.30;;;;;;4963811;28;20038;-75
2023/03/17 08:39:22;;;;;;;11.38;5.00;;;10.40;90.20;;;;;;4962345;28;20039;-75
2023/03/17 08:41:47;;;;;;;10.73;5.05;;;10.50;90.10;;;;;;4945035;29;20198;-75
2023/03/17 08:44:13;;;;;;;9.63;4.57;;;10.40;90.20;;;;;;4944363;29;20063;-74
2023/03/17 08:46:40;;;;;;;8.48;4.20;;;10.40;90.10;;;;;;4944364;29;20032;-74
2023/03/17 08:49:06;;;;;;;10.70;4.45;;;10.50;90.00;;;;;;4944069;29;20116;-73
2023/03/17 08:51:34;;;;;;;9.70;5.05;;;10.60;89.30;;;;;;4944559;29;20031;-74
2023/03/17 08:54:00;;;;;;;;;;;10.70;88.50;;;;;;4944482;29;20316;-74
2023/03/17 08:56:27;;;;;;;8.50;4.47;;;10.70;88.20;;;;;;4949511;29;19969;-72
2023/03/17 08:58:54;;;;;;;9.18;4.65;;;10.90;88.10;;;;;;4963187;28;20162;-74
2023/03/17 09:01:19;;;;;;;8.20;4.30;;;11.00;87.80;;;;;;4963491;28;20070;-72
2023/03/17 09:03:46;;;;;;;8.68;4.43;;;11.20;87.30;;;;;;4963246;29;20047;-73
2023/03/17 09:06:13;;;;;;;8.10;4.45;;;11.30;87.00;;;;;;4963039;28;20059;-75
2023/03/17 09:08:43;;;;;;;10.15;5.13;;;11.50;86.60;;;;;;4963177;29;20123;-73
2023/03/17 09:11:17;;;;;;;8.80;4.72;;;11.50;86.70;;;;;;4954356;28;20221;-75
2023/03/17 09:13:45;;;;;;;9.10;4.53;;;11.60;86.40;;;;;;4959258;29;20043;-73
2023/03/17 09:16:12;;;;;;;9.40;4.20;;;11.90;85.80;;;;;;4962913;28;20042;-74
2023/03/17 09:18:38;;;;;;;15.52;4.35;;;12.00;85.40;;;;;;4963140;28;20028;-75
2023/03/17 09:21:04;;;;;;;10.02;4.40;;;12.30;84.40;;;;;;4963041;29;20035;-74
2023/03/17 09:23:30;;;;;;;9.63;4.35;;;12.30;84.00;;;;;;4963235;28;20272;-74
2023/03/17 09:25:56;;;;;;;8.95;4.38;;;12.50;84.20;;;;;;4963089;28;20030;-74
2023/03/17 09:28:23;;;;;;;7.10;4.15;;;12.80;84.00;;;;;;4963485;29;20027;-75
2023/03/17 09:30:49;;;;;;;8.60;4.25;;;13.10;82.90;;;;;;4963589;28;20209;-74
2023/03/17 09:33:16;;;;;;;12.48;4.47;;;13.30;81.70;;;;;;4963173;29;20062;-75
2023/03/17 09:35:42;;;;;;;8.48;4.22;;;13.50;80.90;;;;;;4949955;29;20325;-74
2023/03/17 09:38:08;;;;;;;14.85;4.75;;;13.50;80.80;;;;;;4963048;28;20027;-74
2023/03/17 09:40:52;;;;;;;8.73;4.18;;;13.50;80.30;;;;;;4963120;29;20039;-75
2023/03/17 09:43:45;;;;;;;13.15;4.60;;;13.60;79.90;;;;;;4962034;28;20054;-73
2023/03/17 09:46:45;;;;;;;8.80;4.18;;;13.60;79.90;;;;;;4962817;29;20054;-73
2023/03/17 09:49:15;;;;;;;9.88;4.03;;;13.70;79.30;;;;;;4933665;29;20055;-74
2023/03/17 09:51:43;;;;;;;9.07;3.83;;;13.70;79.50;;;;;;4965041;28;20034;-74
2023/03/17 09:54:31;;;;;;;7.57;3.58;;;13.70;79.30;;;;;;4966286;29;20034;-73
2023/03/17 09:57:09;;;;;;;10.90;3.65;;;13.80;79.30;;;;;;4967478;28;20050;-72
2023/03/17 09:59:39;;;;;;;8.45;4.03;;;14.00;78.90;;;;;;4968202;29;20225;-73
2023/03/17 10:02:30;;;;;;;8.07;3.78;;;14.10;78.80;;;;;;4952614;28;20048;-73
2023/03/17 10:04:56;;;;;;;9.10;3.88;;;14.10;78.40;;;;;;4930887;29;20048;-75
2023/03/17 10:07:42;;;;;;;8.43;3.63;;;14.40;77.80;;;;;;4928284;29;20214;-75
2023/03/17 10:10:42;;;;;;;7.40;3.28;;;14.70;77.20;;;;;;4935378;29;20221;-75
2023/03/17 10:13:35;;;;;;;7.30;3.67;;;15.00;76.00;;;;;;4907128;29;20048;-73
2023/03/17 10:16:35;;;;;;;12.13;3.45;;;15.20;75.30;;;;;;4934507;29;20043;-73
2023/03/17 10:19:22;;;;;;;6.90;3.20;;;15.40;74.50;;;;;;4945763;29;20118;-73
2023/03/17 10:21:56;;;;;;;5.85;3.08;;;15.60;74.00;;;;;;4947402;29;20158;-74
2023/03/17 10:24:24;;;;;;;6.18;3.10;;;16.10;73.90;;;;;;4947160;29;20050;-74
2023/03/17 10:26:52;;;;;;;10.23;3.27;;;16.50;72.40;;;;;;4945748;29;20023;-75
2023/03/17 10:29:22;;;;;;;8.67;2.90;;;16.90;72.00;;;;;;4946319;29;20032;-74
2023/03/17 10:31:52;;;;;;;8.45;2.95;;;17.30;70.50;;;;;;4946828;29;20629;-73
2023/03/17 10:34:31;;;;;;;6.00;2.38;;;17.40;69.10;;;;;;4946297;29;20063;-74
2023/03/17 10:37:16;;;;;;;9.95;2.70;;;17.40;68.20;;;;;;4932001;29;20059;-75
2023/03/17 10:39:47;;;;;;;7.78;2.80;;;17.60;68.50;;;;;;4945049;29;20032;-75
2023/03/17 10:42:34;;;;;;;6.50;2.90;;;17.80;67.40;;;;;;4946027;29;20246;-74
2023/03/17 10:45:40;;;;;;;4.93;2.42;;;18.00;66.80;;;;;;4945277;29;20030;-74
2023/03/17 10:48:15;;;;;;;8.40;2.90;;;18.30;66.00;;;;;;4945613;29;20067;-74
2023/03/17 10:50:40;;;;;;;6.82;2.60;;;18.60;65.50;;;;;;4946338;29;20032;-75
2023/03/17 10:53:26;;;;;;;4.47;2.33;;;18.80;64.90;;;;;;4945712;29;20016;-74
2023/03/17 10:55:57;;;;;;;6.53;2.85;;;18.90;63.90;;;;;;4945951;29;20110;-75
2023/03/17 10:58:47;;;;;;;8.43;2.70;;;18.90;63.30;;;;;;4945943;29;20226;-74
2023/03/17 11:01:22;;;;;;;7.65;2.45;;;19.10;63.70;;;;;;4945306;29;20044;-75
2023/03/17 11:03:48;;;;;;;10.13;2.50;;;19.20;63.00;;;;;;4962532;28;20131;-74
2023/03/17 11:06:18;;;;;;;5.30;2.35;;;19.60;63.00;;;;;;4964787;28;20050;-73
2023/03/17 11:08:49;;;;;;;8.82;2.63;;;19.90;62.10;;;;;;4965193;28;20045;-74
2023/03/17 11:11:30;;;;;;;6.15;2.42;;;20.20;61.60;;;;;;4955694;28;20055;-72
2023/03/17 11:14:15;;;;;;;6.60;2.30;;;20.50;60.70;;;;;;4964318;28;20058;-75
2023/03/17 11:17:19;;;;;;;5.88;1.88;;;20.70;60.50;;;;;;4965620;29;20119;-73
2023/03/17 11:20:17;;;;;;;5.50;1.90;;;21.00;59.90;;;;;;4906078;29;20033;-73
2023/03/17 11:23:02;;;;;;;4.88;2.10;;;21.30;59.80;;;;;;4912440;29;20051;-74
2023/03/17 11:25:30;;;;;;;4.40;1.80;;;21.70;58.80;;;;;;4947532;29;20075;-74
2023/03/17 11:28:00;;;;;;;6.05;2.28;;;21.80;58.10;;;;;;4964531;28;20103;-75
2023/03/17 11:30:35;;;;;;;4.53;2.28;;;22.00;57.80;;;;;;4964929;29;20022;-72
2023/03/17 11:33:22;;;;;;;4.43;1.90;;;22.20;57.60;;;;;;4964393;28;20035;-74
2023/03/17 11:36:02;;;;;;;4.38;1.80;;;22.30;57.30;;;;;;4964468;28;20070;-75
2023/03/17 11:38:39;;;;;;;9.60;2.10;;;22.30;57.00;;;;;;4965078;29;20094;-74
2023/03/17 11:41:43;;;;;;;4.68;1.90;;;22.20;57.10;;;;;;4964394;28;20035;-74
2023/03/17 11:44:30;;;;;;;5.75;1.90;;;22.10;57.10;;;;;;4963988;28;20054;-74
2023/03/17 11:47:01;;;;;;;4.72;1.60;;;22.20;56.60;;;;;;4964277;29;20035;-75
2023/03/17 11:49:36;;;;;;;7.90;1.80;;;22.60;56.30;;;;;;4964644;28;20042;-76
2023/03/17 11:52:21;;;;;;;3.47;1.40;;;23.10;55.80;;;;;;4963807;28;20099;-74
2023/03/17 11:55:22;;;;;;;4.18;1.65;;;23.60;55.00;;;;;;4964548;28;20046;-74
2023/03/17 11:57:55;;;;;;;6.18;1.63;;;24.20;54.40;;;;;;4953135;29;20070;-75
2023/03/17 12:00:22;;;;;;;4.57;1.90;;;25.30;53.00;;;;;;4964409;29;20039;-73
2023/03/17 12:02:59;;;;;;;4.93;2.00;;;25.50;52.20;;;;;;4964279;28;20071;-73
2023/03/17 12:05:26;;;;;;;6.28;2.00;;;25.90;51.80;;;;;;4964172;28;20050;-73
2023/03/17 12:08:19;;;;;;;5.43;2.17;;;25.50;51.50;;;;;;4964177;28;20053;-74
2023/03/17 12:10:51;;;;;;;3.20;1.70;;;26.30;51.30;;;;;;4960419;28;20035;-75
2023/03/17 12:13:31;;;;;;;5.93;1.58;;;26.30;50.40;;;;;;4963597;28;20046;-76
2023/03/17 12:16:05;;;;;;;7.43;1.77;;;26.20;50.70;;;;;;4957721;29;20144;-78
2023/03/17 12:19:08;;;;;;;5.68;1.50;;;26.10;50.00;;;;;;4943934;29;20039;-75
2023/03/17 12:22:05;;;;;;;5.00;1.50;;;26.20;50.10;;;;;;4944724;29;20028;-76
2023/03/17 12:24:40;;;;;;;4.20;1.63;;;26.10;51.00;;;;;;4944666;29;20054;-75
2023/03/17 12:27:12;;;;;;;4.90;1.92;;;26.00;50.80;;;;;;4960437;28;20271;-75
2023/03/17 12:29:50;;;;;;;4.50;1.45;;;26.20;50.60;;;;;;4950756;28;20051;-75
2023/03/17 12:32:40;;;;;;;3.67;1.35;;;26.40;50.00;;;;;;4944244;29;20102;-74
2023/03/17 12:35:34;;;;;;;6.32;1.55;;;26.90;50.80;;;;;;4956044;29;20274;-74
2023/03/17 12:38:06;;;;;;;6.80;1.73;;;27.40;48.80;;;;;;4948067;29;20094;-74
2023/03/17 12:40:54;;;;;;;2.95;1.48;;;27.40;47.90;;;;;;4964143;29;20058;-74
2023/03/17 12:43:37;;;;;;;7.72;1.90;;;27.10;50.10;;;;;;4960766;29;20031;-74
2023/03/17 12:46:13;;;;;;;4.78;1.50;;;27.00;48.20;;;;;;4944051;29;20032;-73
2023/03/17 12:48:53;;;;;;;7.63;1.70;;;26.90;48.40;;;;;;4944260;29;20035;-74
2023/03/17 12:51:32;;;;;;;5.60;1.70;;;26.60;48.60;;;;;;4944139;29;20059;-74
2023/03/17 12:53:59;;;;;;;4.82;1.75;;;26.40;48.60;;;;;;4943178;29;20039;-75
2023/03/17 12:56:33;;;;;;;3.00;1.50;;;26.00;49.30;;;;;;4953284;29;20047;-74
2023/03/17 12:59:03;;;;;;;6.00;2.40;;;26.20;49.60;;;;;;4962795;28;20043;-74
2023/03/17 13:02:05;;;;;;;5.43;1.52;;;26.20;48.60;;;;;;4948350;28;20055;-76
2023/03/17 13:04:34;;;;;;;4.10;1.75;;;26.10;48.80;;;;;;4904035;29;20275;-74
2023/03/17 13:07:11;;;;;;;2.85;1.20;;;26.10;48.60;;;;;;4925244;29;20095;-75
2023/03/17 13:09:52;;;;;;;4.43;1.30;;;25.80;48.00;;;;;;4916021;29;20325;-75
2023/03/17 13:12:40;;;;;;;6.43;1.33;;;25.20;47.80;;;;;;4918668;29;20207;-74
2023/03/17 13:15:48;;;;;;;3.15;1.15;;;25.10;48.30;;;;;;4914451;29;20099;-75
2023/03/17 13:18:14;;;;;;;2.58;1.05;;;25.30;48.30;;;;;;4903056;29;20132;-75
2023/03/17 13:20:50;;;;;;;4.13;1.05;;;25.70;49.10;;;;;;4925296;29;20309;-76
2023/03/17 13:23:20;;;;;;;2.83;1.10;;;26.00;46.70;;;;;;4925315;29;20357;-73
2023/03/17 13:25:52;;;;;;;3.88;0.90;;;26.20;47.10;;;;;;4925515;29;20111;-74
2023/03/17 13:28:43;;;;;;;2.95;0.70;;;26.30;47.20;;;;;;4928465;29;20048;-74
2023/03/17 13:31:44;;;;;;;4.80;1.58;;;26.40;46.30;;;;;;4923253;29;20055;-74
2023/03/17 13:34:15;;;;;;;3.08;0.98;;;26.40;48.00;;;;;;4919719;29;20337;-75
2023/03/17 13:36:45;;;;;;;5.20;0.80;;;26.70;47.10;;;;;;4927753;29;20032;-75
2023/03/17 13:39:35;;;;;;;2.22;0.98;;;26.50;47.50;;;;;;4928175;29;20104;-76
2023/03/17 13:42:37;;;;;;;1.70;0.63;;;26.50;46.00;;;;;;4928771;29;20047;-70
2023/03/17 13:45:23;;;;;;;6.30;1.20;;;26.50;46.10;;;;;;4928297;29;20031;-74
2023/03/17 13:47:51;;;;;;;2.28;0.95;;;26.20;45.70;;;;;;4921524;29;20051;-72
2023/03/17 13:50:29;;;;;;;3.85;1.10;;;25.90;46.50;;;;;;4927903;29;20344;-72
2023/03/17 13:53:01;;;;;;;3.42;1.02;;;25.90;45.60;;;;;;4928269;29;20051;-71
2023/03/17 13:55:41;;;;;;;2.65;1.00;;;26.00;45.40;;;;;;4928193;29;20096;-71
2023/03/17 13:58:07;;;;;;;3.17;0.90;;;25.90;45.00;;;;;;4927665;29;20039;-72
2023/03/17 14:00:56;;;;;;;4.47;0.93;;;26.00;45.00;;;;;;4928100;29;20040;-71
2023/03/17 14:03:40;;;;;;;2.92;0.82;;;25.80;45.30;;;;;;4939353;29;20106;-71
2023/03/17 14:06:10;;;;;;;4.07;1.05;;;26.00;45.00;;;;;;4940060;29;20028;-72
2023/03/17 14:08:52;;;;;;;5.10;1.10;;;25.80;44.90;;;;;;4937393;29;20039;-71
2023/03/17 14:11:26;;;;;;;2.92;0.93;;;26.20;46.30;;;;;;4934835;29;20050;-71
2023/03/17 14:14:06;;;;;;;2.85;0.93;;;27.20;44.20;;;;;;4941469;29;20064;-72
2023/03/17 14:16:43;;;;;;;3.47;1.05;;;28.10;43.60;;;;;;4927846;29;20036;-76
2023/03/17 14:19:26;;;;;;;5.80;1.08;;;28.10;42.10;;;;;;4945196;29;20042;-75
2023/03/17 14:22:19;;;;;;;3.22;0.90;;;28.50;42.30;;;;;;4941887;29;20091;-75
2023/03/17 14:24:50;;;;;;;5.07;1.90;;;28.30;41.80;;;;;;4928093;29;20040;-75
2023/03/17 14:27:16;;;;;;;4.07;1.00;;;28.50;41.90;;;;;;4929336;29;20043;-75
2023/03/17 14:29:42;;;;;;;3.33;1.23;;;28.40;41.90;;;;;;4962195;28;20257;-75
2023/03/17 14:32:16;;;;;;;2.83;0.93;;;27.80;42.70;;;;;;4946005;29;20094;-75
2023/03/17 14:34:53;;;;;;;3.15;0.85;;;27.90;43.40;;;;;;4946841;29;20122;-74
2023/03/17 14:37:19;;;;;;;3.15;0.70;;;27.90;43.50;;;;;;4940076;29;20039;-74
2023/03/17 14:39:48;;;;;;;1.92;0.60;;;27.60;41.90;;;;;;4946266;29;20043;-74
2023/03/17 14:42:18;;;;;;;1.83;0.90;;;26.90;43.90;;;;;;4954720;28;20040;-74
2023/03/17 14:44:44;;;;;;;2.08;0.60;;;26.60;44.30;;;;;;4927437;29;20060;-74
2023/03/17 14:47:19;;;;;;;3.17;0.70;;;26.50;43.20;;;;;;4941761;29;20222;-74
2023/03/17 14:49:45;;;;;;;2.97;1.15;;;26.30;43.60;;;;;;4942476;29;20043;-74
2023/03/17 14:52:25;;;;;;;3.58;0.90;;;26.10;42.90;;;;;;4938823;29;20071;-74
2023/03/17 14:54:53;;;;;;;2.40;1.10;;;26.00;44.30;;;;;;4929228;29;20044;-74
2023/03/17 14:57:25;;;;;;;4.93;0.90;;;25.80;43.20;;;;;;4960523;28;20028;-74
2023/03/17 15:00:13;;;;;;;2.95;1.02;;;25.80;45.50;;;;;;4945976;29;20039;-75
2023/03/17 15:02:41;;;;;;;2.88;1.23;;;26.30;43.00;;;;;;4954118;28;20066;-74
2023/03/17 15:05:41;;;;;;;4.25;1.25;;;27.10;43.70;;;;;;4964499;28;20054;-74
2023/03/17 15:08:40;;;;;;;3.78;1.10;;;28.60;41.90;;;;;;4964819;28;20059;-75
2023/03/17 15:11:07;;;;;;;2.65;0.90;;;28.90;41.90;;;;;;4963446;28;20217;-74
2023/03/17 15:13:35;;;;;;;3.33;1.00;;;28.60;41.30;;;;;;4965200;28;20031;-74
2023/03/17 15:16:05;;;;;;;;;;;28.00;43.50;;;;;;4965244;28;20098;-75
2023/03/17 15:18:30;;;;;;;2.75;1.20;;;27.60;42.90;;;;;;4960960;28;20115;-74
2023/03/17 15:20:57;;;;;;;5.75;1.00;;;27.00;43.10;;;;;;4952984;28;20076;-74
2023/03/17 15:23:27;;;;;;;2.35;1.02;;;26.70;46.10;;;;;;4928894;29;20102;-74
2023/03/17 15:25:55;;;;;;;2.17;0.95;;;26.40;44.30;;;;;;4953659;29;20035;-75
2023/03/17 15:28:25;;;;;;;;;;;25.90;47.70;;;;;;4948142;28;20116;-75
2023/03/17 15:31:10;;;;;;;2.33;1.00;;;25.50;45.00;;;;;;4945685;29;19930;-74
2023/03/17 15:33:38;;;;;;;3.92;1.20;;;25.10;47.10;;;;;;4945737;29;20035;-74
2023/03/17 15:36:05;;;;;;;3.58;1.33;;;24.90;47.60;;;;;;4945039;29;20028;-75
2023/03/17 15:38:31;;;;;;;2.97;1.10;;;24.70;50.00;;;;;;4936590;29;20039;-74
2023/03/17 15:40:57;;;;;;;2.63;1.17;;;24.60;48.10;;;;;;4964465;28;20218;-74
2023/03/17 15:43:23;;;;;;;4.57;1.38;;;24.30;47.60;;;;;;4946565;29;20035;-74
2023/03/17 15:46:21;;;;;;;2.60;1.27;;;23.90;48.10;;;;;;4944889;29;20107;-74
2023/03/17 15:48:46;;;;;;;6.37;1.60;;;23.60;48.30;;;;;;4944581;29;20040;-74
2023/03/17 15:51:12;;;;;;;4.22;1.50;;;23.30;50.80;;;;;;4945090;29;20187;-74
2023/03/17 15:53:38;;;;;;;4.63;1.80;;;23.20;51.10;;;;;;4953406;29;20219;-74
2023/03/17 15:56:06;;;;;;;4.65;1.38;;;23.00;49.70;;;;;;4963046;28;20019;-76
2023/03/17 15:58:32;;;;;;;4.05;1.77;;;22.80;49.80;;;;;;4962172;28;20035;-74
2023/03/17 16:00:58;;;;;;;4.57;1.90;;;22.50;51.30;;;;;;4951953;29;20039;-75
2023/03/17 16:03:31;;;;;;;3.70;1.20;;;22.30;51.30;;;;;;4964144;28;20098;-75
2023/03/17 16:05:58;;;;;;;3.33;1.30;;;22.30;53.30;;;;;;4958490;28;20118;-72
2023/03/17 16:08:23;;;;;;;4.50;1.40;;;22.20;54.90;;;;;;4944845;29;20094;-74
2023/03/17 16:10:51;;;;;;;4.13;1.10;;;22.10;54.10;;;;;;4957278;28;20190;-73
2023/03/17 16:13:17;;;;;;;3.92;1.00;;;22.00;54.60;;;;;;4962359;28;20332;-74
2023/03/17 16:15:57;;;;;;;4.82;1.23;;;22.00;54.00;;;;;;4946943;29;20047;-74
2023/03/17 16:18:33;;;;;;;2.85;1.05;;;22.00;56.20;;;;;;4963819;29;20042;-74
2023/03/17 16:21:01;;;;;;;2.95;1.20;;;21.90;56.10;;;;;;4935795;29;20361;-73
2023/03/17 16:23:30;;;;;;;2.13;1.00;;;21.90;54.10;;;;;;4958351;29;20359;-73
2023/03/17 16:25:59;;;;;;;4.07;1.20;;;21.80;53.90;;;;;;4963110;29;20155;-73
2023/03/17 16:28:30;;;;;;;6.57;1.60;;;21.70;54.60;;;;;;4963845;28;20023;-74
2023/03/17 16:30:58;;;;;;;2.90;1.27;;;21.50;54.20;;;;;;4946007;29;20040;-74
2023/03/17 16:33:29;;;;;;;5.07;1.77;;;21.50;55.70;;;;;;4952579;28;20039;-73
2023/03/17 16:35:56;;;;;;;4.55;1.70;;;21.30;55.30;;;;;;4944930;29;20043;-72
2023/03/17 16:38:23;;;;;;;3.28;1.60;;;21.20;56.80;;;;;;4898919;29;20381;-72
2023/03/17 16:40:52;;;;;;;4.37;1.60;;;21.10;56.30;;;;;;4939622;29;20040;-74
2023/03/17 16:43:27;;;;;;;8.10;2.10;;;20.90;57.50;;;;;;4936505;29;20428;-74
2023/03/17 16:45:54;;;;;;;5.85;1.80;;;20.80;58.80;;;;;;4939989;29;20056;-75
2023/03/17 16:48:20;;;;;;;6.13;2.03;;;20.70;56.80;;;;;;4936987;29;20051;-72
2023/03/17 16:50:46;;;;;;;5.65;2.92;;;20.60;57.40;;;;;;4929119;29;20079;-75
2023/03/17 16:53:12;;;;;;;4.25;2.08;;;20.50;60.00;;;;;;4914880;29;20086;-77
2023/03/17 16:55:39;;;;;;;6.70;2.53;;;20.40;61.00;;;;;;4938404;29;20031;-77
2023/03/17 16:58:18;;;;;;;5.55;2.78;;;20.30;58.80;;;;;;4907635;29;20036;-73
2023/03/17 17:00:48;;;;;;;5.38;2.50;;;20.10;56.40;;;;;;4925600;29;20044;-75
2023/03/17 17:03:14;;;;;;;4.85;2.22;;;19.90;56.40;;;;;;4938470;29;20052;-75
2023/03/17 17:05:40;;;;;;;5.93;3.17;;;19.70;58.10;;;;;;4945690;29;20110;-76
2023/03/17 17:08:06;;;;;;;6.45;3.65;;;19.50;57.80;;;;;;4947729;29;20086;-76
2023/03/17 17:10:33;;;;;;;8.85;3.83;;;19.40;58.80;;;;;;4930933;29;20035;-74
2023/03/17 17:13:00;;;;;;;7.18;3.63;;;19.20;61.10;;;;;;4930730;29;20361;-73
2023/03/17 17:15:28;;;;;;;9.35;3.58;;;19.10;60.00;;;;;;4934262;29;20115;-74
2023/03/17 17:17:56;;;;;;;6.93;3.40;;;19.00;59.20;;;;;;4929347;29;20024;-73
2023/03/17 17:20:23;;;;;;;;;;;18.80;61.30;;;;;;4943059;29;20095;-73
2023/03/17 17:22:49;;;;;;;6.70;2.85;;;18.70;60.80;;;;;;4948146;29;19914;-73
2023/03/17 17:25:16;;;;;;;5.38;2.35;;;18.50;61.70;;;;;;4947891;29;20400;-74
2023/03/17 17:27:43;;;;;;;5.07;1.85;;;18.30;64.40;;;;;;4927750;29;20112;-73
2023/03/17 17:30:12;;;;;;;5.47;2.03;;;18.10;65.40;;;;;;4928248;29;20040;-71
2023/03/17 17:32:38;;;;;;;4.18;1.77;;;17.80;66.40;;;;;;4929134;29;20134;-74
2023/03/17 17:35:07;;;;;;;4.60;1.70;;;17.60;66.70;;;;;;4928776;29;20368;-75
2023/03/17 17:37:34;;;;;;;6.18;1.90;;;17.50;66.80;;;;;;4929558;29;20195;-73
2023/03/17 17:40:04;;;;;;;10.07;2.55;;;17.40;66.50;;;;;;4930264;29;20042;-78
2023/03/17 17:42:30;;;;;;;4.82;1.63;;;17.30;66.30;;;;;;4947772;29;20106;-74
2023/03/17 17:44:56;;;;;;;4.72;1.23;;;17.10;68.90;;;;;;4947114;29;20031;-73
2023/03/17 17:47:22;;;;;;;6.95;1.60;;;17.00;69.10;;;;;;4947467;29;20369;-72
2023/03/17 17:49:48;;;;;;;3.55;1.83;;;17.00;68.80;;;;;;4947915;29;20038;-74
2023/03/17 17:52:14;;;;;;;6.20;1.90;;;16.90;68.30;;;;;;4930121;29;20036;-73
2023/03/17 17:54:39;;;;;;;8.38;2.40;;;16.80;69.20;;;;;;4947251;29;20049;-72
2023/03/17 17:57:05;;;;;;;5.63;2.10;;;16.70;71.30;;;;;;4947523;29;20317;-74
2023/03/17 17:59:31;;;;;;;6.50;2.17;;;16.70;73.00;;;;;;4947505;29;20036;-73
2023/03/17 18:01:59;;;;;;;6.60;2.38;;;16.60;73.40;;;;;;4946748;29;20027;-71
2023/03/17 18:04:25;;;;;;;6.03;2.08;;;16.50;71.60;;;;;;4930776;29;20039;-74
2023/03/17 18:06:50;;;;;;;6.72;2.97;;;16.40;70.00;;;;;;4934113;29;20427;-73
2023/03/17 18:09:19;;;;;;;7.05;2.95;;;16.40;70.80;;;;;;4929548;29;20036;-71
2023/03/17 18:11:45;;;;;;;4.90;2.53;;;16.30;71.50;;;;;;4947033;29;20107;-72
2023/03/17 18:14:12;;;;;;;5.85;2.95;;;16.20;74.00;;;;;;4946672;29;20054;-73
2023/03/17 18:16:37;;;;;;;5.63;2.65;;;16.20;73.50;;;;;;4947168;29;20111;-72